Time;durP1;ratioP1;P1;durP2;ratioP2;P2;SDS_P1;SDS_P2;PMS_P1;PMS_P2;Temp;Humidity;BMP_temperature;BMP_pressure;BME280_temperature;BME280_humidity;BME280_pressure;Samples;Min_cycle;Max_cycle;Signal;HPM_P1;HPM_P2
2022/04/26 03:37:25;;;;;;;13.05;6.47;;;;;;;6.54;87.17;101542.63;5001535;28;20041;-64
2022/04/26 03:39:50;;;;;;;14.90;6.30;;;;;;;6.54;86.76;101546.16;5001669;28;20521;-64
2022/04/26 03:42:16;;;;;;;14.07;6.28;;;;;;;6.61;86.63;101545.00;4996838;28;20578;-64
2022/04/26 03:44:45;;;;;;;11.88;7.03;;;;;;;6.72;86.33;101558.72;4994272;28;20048;-64
2022/04/26 03:47:10;;;;;;;10.88;6.18;;;;;;;6.64;87.81;101546.69;5001665;28;20149;-65
2022/04/26 03:49:36;;;;;;;13.35;6.57;;;;;;;6.76;86.77;101548.88;5002436;28;20034;-64
2022/04/26 03:52:02;;;;;;;15.50;5.40;;;;;;;6.66;88.08;101547.47;5001845;28;20120;-64
2022/04/26 03:54:28;;;;;;;12.15;6.15;;;;;;;6.64;88.03;101546.69;5000977;28;20045;-64
2022/04/26 03:56:54;;;;;;;17.90;6.05;;;;;;;6.65;88.83;101549.28;5000556;28;20096;-65
2022/04/26 03:59:20;;;;;;;11.57;5.97;;;;;;;6.68;88.00;101545.66;5001076;28;20092;-64
2022/04/26 04:01:46;;;;;;;14.50;6.25;;;;;;;6.68;88.73;101543.88;5001697;28;20046;-64
2022/04/26 04:04:11;;;;;;;15.80;7.75;;;;;;;6.70;88.55;101541.16;5001941;28;20093;-64
2022/04/26 04:06:37;;;;;;;12.80;6.25;;;;;;;6.68;88.72;101540.38;5001254;28;20056;-64
2022/04/26 04:09:03;;;;;;;12.23;6.05;;;;;;;6.74;89.12;101548.94;5001316;28;20045;-64
2022/04/26 04:11:28;;;;;;;13.73;6.03;;;;;;;6.71;89.34;101550.84;5000770;28;20072;-64
2022/04/26 04:13:54;;;;;;;15.52;6.07;;;;;;;6.74;88.95;101553.38;5001540;28;20053;-64
2022/04/26 04:16:19;;;;;;;19.45;6.80;;;;;;;6.75;89.34;101558.63;5001309;28;20120;-64
2022/04/26 04:21:28;;;;;;;12.45;6.38;;;;;;;6.81;89.19;101560.19;4999336;28;20077;-65
2022/04/26 04:23:54;;;;;;;15.70;6.53;;;;;;;6.81;89.62;101562.84;5001097;28;20048;-64
2022/04/26 04:26:19;;;;;;;13.52;7.50;;;;;;;6.76;89.74;101562.13;5001068;28;20100;-64
2022/04/26 04:28:45;;;;;;;14.68;7.50;;;;;;;6.78;90.01;101565.63;5001119;28;20541;-64
2022/04/26 04:31:11;;;;;;;17.17;7.78;;;;;;;6.81;89.34;101559.31;5003060;28;20118;-64
2022/04/26 04:33:37;;;;;;;12.57;7.05;;;;;;;6.81;89.79;101562.84;5004630;28;20806;-64
2022/04/26 04:36:03;;;;;;;18.25;7.90;;;;;;;6.91;89.22;101569.53;5003256;28;20056;-64
2022/04/26 04:38:29;;;;;;;15.88;7.35;;;;;;;6.77;90.33;101565.66;5000014;28;20562;-65
2022/04/26 04:40:54;;;;;;;13.98;7.97;;;;;;;6.82;89.52;101572.50;5005015;28;20042;-65
2022/04/26 04:43:20;;;;;;;19.45;9.00;;;;;;;6.74;89.92;101574.59;5004946;28;20084;-64
2022/04/26 04:45:47;;;;;;;20.05;8.90;;;;;;;6.81;89.53;101573.44;5003355;28;20104;-64
2022/04/26 04:48:13;;;;;;;18.73;8.65;;;;;;;6.79;89.76;101574.44;5003242;28;20121;-64
2022/04/26 04:50:39;;;;;;;20.13;9.57;;;;;;;6.74;89.74;101586.06;5003075;28;20073;-64
2022/04/26 04:53:04;;;;;;;17.17;8.43;;;;;;;6.69;90.29;101587.13;4996486;28;20089;-64
2022/04/26 04:55:30;;;;;;;15.45;9.18;;;;;;;6.67;90.54;101589.81;5001046;28;20594;-64
2022/04/26 04:57:55;;;;;;;17.15;8.75;;;;;;;6.64;90.81;101589.09;5008565;28;20045;-65
2022/04/26 05:00:20;;;;;;;15.30;8.85;;;;;;;6.74;89.65;101596.66;4999963;28;20108;-64
2022/04/26 05:02:46;;;;;;;18.42;9.32;;;;;;;6.68;90.13;101596.88;5009528;28;20042;-64
2022/04/26 05:05:12;;;;;;;20.50;9.02;;;;;;;6.62;89.94;101596.19;4995049;28;20408;-64
2022/04/26 05:07:38;;;;;;;21.67;9.80;;;;;;;6.65;89.67;101596.09;4999543;28;20072;-64
2022/04/26 05:10:06;;;;;;;24.48;9.73;;;;;;;6.64;89.82;101599.69;5011238;28;20909;-70
2022/04/26 05:12:31;;;;;;;19.15;8.65;;;;;;;6.64;90.26;101611.16;4992325;28;20053;-65
2022/04/26 05:18:56;;;;;;;21.02;10.43;;;;;;;6.67;90.30;101615.47;4991661;28;20052;-65
2022/04/26 05:21:21;;;;;;;21.13;10.13;;;;;;;6.69;90.24;101616.28;5001513;28;20046;-65
2022/04/26 05:26:31;;;;;;;19.27;10.20;;;;;;;6.79;89.43;101622.13;5003349;28;20045;-65
2022/04/26 05:28:57;;;;;;;19.45;10.38;;;;;;;6.75;89.56;101626.66;4979790;28;20038;-65
2022/04/26 05:31:22;;;;;;;19.00;10.75;;;;;;;6.94;89.11;101632.19;4999752;28;21073;-65
2022/04/26 05:33:48;;;;;;;22.00;10.77;;;;;;;6.88;88.95;101633.28;5001162;28;20037;-65
2022/04/26 05:36:13;;;;;;;27.65;11.80;;;;;;;6.90;88.92;101631.44;5003200;28;21007;-65
2022/04/26 05:38:39;;;;;;;23.80;10.10;;;;;;;6.91;88.96;101630.50;5002103;28;20121;-65
2022/04/26 05:41:05;;;;;;;23.77;11.70;;;;;;;6.92;88.66;101626.94;5003817;28;20368;-65
2022/04/26 05:43:33;;;;;;;18.05;10.55;;;;;;;6.94;88.68;101632.19;5005714;28;20044;-65
2022/04/26 05:45:58;;;;;;;25.73;11.55;;;;;;;6.99;88.62;101639.06;5003086;28;20080;-65
2022/04/26 05:48:24;;;;;;;25.02;12.18;;;;;;;7.16;88.14;101633.16;5001192;28;20122;-65
2022/04/26 05:50:50;;;;;;;21.83;11.88;;;;;;;7.20;87.66;101634.75;5001628;28;20057;-65
2022/04/26 05:53:16;;;;;;;25.27;12.95;;;;;;;7.21;87.84;101638.28;5001747;28;20046;-65
2022/04/26 05:55:41;;;;;;;25.90;12.60;;;;;;;7.36;87.33;101642.16;5003398;28;20080;-65
2022/04/26 05:58:07;;;;;;;21.30;12.13;;;;;;;7.40;87.13;101646.44;5001611;28;20041;-65
2022/04/26 06:00:32;;;;;;;22.73;11.30;;;;;;;7.58;86.48;101650.16;5003280;28;20042;-65
2022/04/26 06:02:58;;;;;;;20.15;10.73;;;;;;;7.57;86.41;101648.44;5002928;28;20042;-65
2022/04/26 06:05:23;;;;;;;24.60;12.73;;;;;;;7.71;86.62;101646.13;5003058;28;20050;-65
2022/04/26 06:07:49;;;;;;;27.38;13.02;;;;;;;7.95;84.77;101642.53;5003379;28;20984;-65
2022/04/26 06:10:15;;;;;;;30.48;13.07;;;;;;;7.90;85.35;101652.47;5003012;28;20339;-66
2022/04/26 06:12:44;;;;;;;21.92;11.35;;;;;;;7.66;85.70;101648.97;5002715;28;20056;-65
2022/04/26 06:15:10;;;;;;;21.52;12.00;;;;;;;7.85;85.42;101653.56;5002546;28;20643;-65
2022/04/26 06:17:35;;;;;;;30.48;13.65;;;;;;;7.92;84.77;101660.34;5000935;28;20141;-65
2022/04/26 06:20:01;;;;;;;22.50;13.00;;;;;;;7.89;85.14;101657.84;5002877;28;20060;-65
2022/04/26 06:22:26;;;;;;;20.58;11.85;;;;;;;8.13;84.31;101655.97;5002450;28;20712;-65
2022/04/26 06:24:52;;;;;;;20.10;11.27;;;;;;;8.12;84.01;101663.09;5001227;28;20760;-65
2022/04/26 06:27:18;;;;;;;30.75;12.80;;;;;;;8.18;83.69;101672.59;5000747;28;20042;-65
2022/04/26 06:29:44;;;;;;;22.30;12.30;;;;;;;8.14;84.41;101660.41;5002123;28;20553;-65
2022/04/26 06:32:10;;;;;;;21.55;12.40;;;;;;;8.24;83.69;101657.31;5002148;28;20808;-65
2022/04/26 06:34:35;;;;;;;24.15;12.95;;;;;;;8.20;84.03;101663.66;5002220;28;20041;-65
2022/04/26 06:37:02;;;;;;;22.98;11.43;;;;;;;8.16;84.52;101671.81;5000071;28;20182;-65
2022/04/26 06:39:28;;;;;;;20.67;12.18;;;;;;;8.24;84.19;101667.94;5001945;28;20801;-65
2022/04/26 06:41:56;;;;;;;26.85;12.52;;;;;;;8.27;83.92;101677.56;5000692;28;20057;-65
2022/04/26 06:44:22;;;;;;;18.45;11.05;;;;;;;8.02;84.17;101678.53;5002427;28;20045;-65
2022/04/26 06:46:48;;;;;;;25.10;12.25;;;;;;;8.05;84.77;101677.56;5001233;28;20045;-65
2022/04/26 06:49:14;;;;;;;18.83;11.15;;;;;;;8.16;84.70;101677.13;5000961;28;20033;-65
2022/04/26 06:51:44;;;;;;;24.75;11.50;;;;;;;8.11;84.57;101682.63;5000076;28;20490;-65
2022/04/26 06:54:10;;;;;;;23.90;12.07;;;;;;;8.20;83.55;101692.03;5000336;28;20099;-65
2022/04/26 06:56:35;;;;;;;27.50;13.25;;;;;;;8.44;82.99;101683.09;5000250;28;20041;-65
2022/04/26 06:59:01;;;;;;;17.55;10.30;;;;;;;8.33;82.98;101687.94;4999534;28;20038;-65
2022/04/26 07:01:27;;;;;;;22.65;10.90;;;;;;;8.57;81.83;101692.28;4999712;28;20708;-65
2022/04/26 07:03:53;;;;;;;22.15;11.15;;;;;;;8.70;81.08;101697.97;4994559;28;20927;-65
2022/04/26 07:06:18;;;;;;;17.58;11.02;;;;;;;8.59;81.55;101697.56;4990749;28;20122;-65
2022/04/26 07:08:44;;;;;;;19.83;10.95;;;;;;;8.81;80.84;101693.06;4997922;28;20043;-65
2022/04/26 07:11:10;;;;;;;20.67;10.88;;;;;;;8.62;81.43;101694.75;5000944;28;20037;-66
2022/04/26 07:13:35;;;;;;;29.95;12.10;;;;;;;8.73;81.08;101697.81;5000760;28;20513;-66
2022/04/26 07:16:01;;;;;;;23.23;11.65;;;;;;;8.77;80.98;101693.25;5001136;28;20072;-66
2022/04/26 07:18:26;;;;;;;18.83;9.05;;;;;;;8.64;81.01;101697.38;4997918;28;20046;-66
2022/04/26 07:20:52;;;;;;;15.68;8.95;;;;;;;8.46;81.63;101714.91;5000336;28;20406;-66
2022/04/26 07:23:17;;;;;;;23.85;10.55;;;;;;;8.67;81.15;101702.53;5000599;28;20415;-64
2022/04/26 07:25:43;;;;;;;20.02;9.77;;;;;;;8.79;81.07;101702.91;5000226;28;20045;-65
2022/04/26 07:28:08;;;;;;;17.42;9.40;;;;;;;8.79;80.05;101699.38;5000755;28;20041;-66
2022/04/26 07:30:38;;;;;;;17.23;9.93;;;;;;;9.08;79.10;101698.97;4999647;28;20053;-66
2022/04/26 07:35:50;;;;;;;18.73;10.02;;;;;;;9.24;78.28;101715.16;4982603;28;20746;-66
2022/04/26 07:38:16;;;;;;;17.92;9.73;;;;;;;9.67;77.45;101705.25;4995749;28;20041;-66
2022/04/26 07:40:42;;;;;;;14.13;8.98;;;;;;;9.60;78.99;101709.13;4999764;28;20038;-66
2022/04/26 07:43:07;;;;;;;15.77;9.27;;;;;;;9.50;77.83;101708.69;4998644;28;20091;-66
2022/04/26 07:45:37;;;;;;;17.40;9.20;;;;;;;9.59;76.85;101713.59;5000673;28;20046;-66
2022/04/26 07:48:05;;;;;;;15.85;8.95;;;;;;;9.59;77.42;101715.41;5000547;28;20049;-66
2022/04/26 07:50:30;;;;;;;19.52;9.88;;;;;;;9.85;76.91;101717.72;5000581;28;20034;-66
2022/04/26 07:52:56;;;;;;;18.70;8.98;;;;;;;9.83;76.65;101716.91;4999970;28;20833;-66
2022/04/26 07:55:22;;;;;;;13.82;9.02;;;;;;;10.76;75.68;101708.06;5000194;28;20053;-64
2022/04/26 07:57:47;;;;;;;15.15;8.95;;;;;;;10.67;74.43;101701.38;5000385;28;20774;-66
2022/04/26 08:00:14;;;;;;;20.17;8.82;;;;;;;10.78;73.17;101708.84;5000129;28;20044;-66
2022/04/26 08:02:40;;;;;;;13.30;8.60;;;;;;;11.02;72.51;101710.25;4998731;28;20038;-66
2022/04/26 08:05:05;;;;;;;12.02;8.63;;;;;;;10.27;75.07;101710.47;5003473;28;20814;-66
2022/04/26 08:07:31;;;;;;;23.95;9.48;;;;;;;10.48;75.03;101716.56;5003791;28;20045;-65
2022/04/26 08:09:57;;;;;;;20.60;8.43;;;;;;;10.05;75.04;101719.47;5004183;28;20034;-64
2022/04/26 08:12:23;;;;;;;12.82;8.10;;;;;;;9.83;75.49;101732.03;5004323;28;20062;-64
2022/04/26 08:14:48;;;;;;;16.15;9.40;;;;;;;10.18;75.20;101725.06;5002775;28;20068;-64
2022/04/26 08:17:16;;;;;;;21.20;8.55;;;;;;;10.31;74.56;101723.56;5004181;28;20057;-64
2022/04/26 08:19:44;;;;;;;13.77;8.93;;;;;;;10.20;74.05;101727.66;5004015;28;20434;-64
2022/04/26 08:22:10;;;;;;;14.20;9.70;;;;;;;10.26;73.96;101735.41;5003911;28;20054;-64
2022/04/26 08:27:22;;;;;;;15.18;9.30;;;;;;;10.61;73.81;101744.34;5003411;28;20050;-64
2022/04/26 08:29:54;;;;;;;18.08;9.73;;;;;;;10.72;73.08;101744.69;5002290;28;20846;-64
2022/04/26 08:32:21;;;;;;;16.58;8.90;;;;;;;11.52;73.29;101743.28;5003869;28;20046;-64
2022/04/26 08:34:48;;;;;;;13.55;8.05;;;;;;;12.06;69.46;101744.81;5003854;28;20046;-64
2022/04/26 08:37:14;;;;;;;13.52;8.13;;;;;;;11.99;68.59;101740.75;5003944;28;20073;-64
2022/04/26 08:39:39;;;;;;;11.90;8.23;;;;;;;11.79;69.72;101754.28;5003782;28;20184;-64
2022/04/26 08:42:06;;;;;;;14.15;8.20;;;;;;;12.81;69.04;101739.72;5004197;28;20149;-64
2022/04/26 08:44:32;;;;;;;16.02;8.38;;;;;;;12.98;66.08;101744.91;5004161;28;20084;-65
2022/04/26 08:52:28;;;;;;;13.18;8.32;;;;;;;13.10;66.76;101754.03;5002650;28;20048;-65
2022/04/26 08:54:53;;;;;;;12.55;7.07;;;;;;;13.49;63.78;101769.56;5003963;28;20049;-65
2022/04/26 08:57:19;;;;;;;10.77;7.32;;;;;;;13.36;64.98;101765.94;5003316;28;20057;-64
2022/04/26 08:59:49;;;;;;;12.45;7.38;;;;;;;13.07;63.16;101762.28;5003602;28;20049;-64
2022/04/26 09:02:21;;;;;;;8.60;6.68;;;;;;;12.60;65.32;101766.75;5003654;28;20038;-65
2022/04/26 09:04:50;;;;;;;15.32;7.60;;;;;;;12.06;65.72;101776.03;5003981;28;20475;-65
2022/04/26 09:07:32;;;;;;;17.88;7.70;;;;;;;12.33;64.96;101773.66;5003463;28;20446;-64
2022/04/26 09:10:24;;;;;;;13.60;7.65;;;;;;;12.43;67.53;101778.41;5003550;28;20072;-64
2022/04/26 09:13:09;;;;;;;14.02;7.35;;;;;;;12.58;63.54;101784.69;4997134;28;20157;-64
2022/04/26 09:15:39;;;;;;;13.30;7.13;;;;;;;12.89;63.26;101777.56;5003274;28;20499;-64
2022/04/26 09:18:26;;;;;;;10.05;5.63;;;;;;;12.46;67.03;101788.06;5001236;28;20133;-65
2022/04/26 09:20:56;;;;;;;10.80;6.95;;;;;;;13.27;64.18;101772.69;4984402;28;20046;-65
2022/04/26 09:23:23;;;;;;;12.18;7.70;;;;;;;14.17;64.38;101775.16;4984868;28;20046;-64
2022/04/26 09:26:05;;;;;;;14.10;6.65;;;;;;;12.93;63.57;101793.38;5001402;28;20022;-65
2022/04/26 09:28:30;;;;;;;12.23;6.63;;;;;;;13.16;64.74;101791.19;5001139;28;20034;-64
2022/04/26 09:30:57;;;;;;;12.23;5.90;;;;;;;12.66;64.52;101794.97;5001350;28;20053;-65
2022/04/26 09:33:40;;;;;;;14.80;5.93;;;;;;;12.31;65.63;101788.94;5003038;28;20088;-64
2022/04/26 09:36:11;;;;;;;12.23;6.40;;;;;;;12.95;65.51;101783.47;5000985;28;20060;-64
2022/04/26 09:42:31;;;;;;;12.25;5.93;;;;;;;12.69;63.73;101806.34;4992005;28;20052;-63
2022/04/26 09:45:08;;;;;;;16.38;5.85;;;;;;;12.11;65.73;101811.41;5002311;28;20648;-64
2022/04/26 09:55:42;;;;;;;11.43;5.82;;;;;;;13.54;61.72;101807.66;5027208;28;20048;-64
2022/04/26 09:58:10;;;;;;;12.45;5.78;;;;;;;12.71;64.04;101814.31;5016427;28;20208;-64
2022/04/26 10:00:38;;;;;;;15.93;6.28;;;;;;;12.92;61.37;101812.22;5015903;28;20045;-64
2022/04/26 10:03:09;;;;;;;9.20;5.47;;;;;;;12.97;62.22;101818.16;5015797;28;20042;-65
2022/04/26 10:05:39;;;;;;;8.05;5.22;;;;;;;12.64;61.66;101828.97;5016329;28;20041;-65
2022/04/26 10:08:05;;;;;;;9.18;4.97;;;;;;;11.76;61.84;101822.16;5016649;28;20053;-64
2022/04/26 10:10:30;;;;;;;12.43;5.82;;;;;;;11.80;63.06;101828.19;5015995;28;20038;-65
2022/04/26 10:16:19;;;;;;;6.88;5.68;;;;;;;12.39;61.19;101821.44;4935760;29;20102;-64
2022/04/26 10:18:47;;;;;;;9.45;4.78;;;;;;;12.86;60.39;101817.94;4931792;28;20545;-65
2022/04/26 10:21:35;;;;;;;9.88;5.20;;;;;;;13.57;61.56;101828.06;4929991;29;20047;-64
2022/04/26 10:24:04;;;;;;;12.10;5.68;;;;;;;13.17;60.27;101825.91;4930020;29;20035;-65
2022/04/26 10:26:31;;;;;;;5.88;4.82;;;;;;;13.24;63.21;101830.94;4930564;28;20043;-65
2022/04/26 10:29:02;;;;;;;9.82;4.55;;;;;;;13.58;58.07;101835.16;4914911;29;20043;-65
2022/04/26 10:31:37;;;;;;;11.45;5.03;;;;;;;13.84;60.26;101831.75;4914280;29;20047;-65
2022/04/26 10:34:15;;;;;;;9.43;5.25;;;;;;;13.73;58.24;101832.41;4930289;29;20453;-65
2022/04/26 10:36:44;;;;;;;6.97;4.97;;;;;;;13.82;56.10;101835.50;4930303;28;20778;-65
2022/04/26 10:39:13;;;;;;;7.78;5.53;;;;;;;14.21;59.35;101837.53;4929683;29;20047;-65
2022/04/26 10:41:40;;;;;;;7.90;4.38;;;;;;;13.18;59.44;101851.72;4929760;29;20465;-64
2022/04/26 10:44:21;;;;;;;5.70;4.13;;;;;;;13.46;57.89;101834.94;4930200;29;20047;-64
2022/04/26 10:47:07;;;;;;;6.22;4.57;;;;;;;14.14;55.35;101845.09;4968621;28;20569;-64
2022/04/26 10:49:33;;;;;;;9.52;5.20;;;;;;;14.16;56.73;101851.22;4992315;28;20048;-65
2022/04/26 10:52:10;;;;;;;7.85;4.75;;;;;;;14.73;56.79;101848.50;5010919;28;20688;-64
2022/04/26 10:55:03;;;;;;;5.82;4.40;;;;;;;13.32;58.11;101852.78;5010818;28;20304;-65
2022/04/26 10:57:36;;;;;;;10.40;4.57;;;;;;;13.40;58.41;101862.09;4991474;28;20084;-65
2022/04/26 11:00:06;;;;;;;7.00;4.15;;;;;;;12.73;60.11;101863.25;4988854;28;20195;-65
2022/04/26 11:02:37;;;;;;;7.10;4.70;;;;;;;13.84;59.98;101868.41;4991278;28;20046;-65
2022/04/26 11:05:10;;;;;;;7.72;4.90;;;;;;;14.56;61.29;101861.28;4989678;28;20041;-64
2022/04/26 11:07:56;;;;;;;7.63;4.85;;;;;;;13.20;60.12;101863.25;4991223;28;20091;-65
2022/04/26 11:10:23;;;;;;;7.25;4.93;;;;;;;13.28;59.90;101869.97;4991012;28;20136;-65
2022/04/26 11:12:50;;;;;;;7.05;4.80;;;;;;;14.63;59.35;101866.19;4989962;28;20103;-65
2022/04/26 11:15:21;;;;;;;8.38;5.15;;;;;;;15.27;55.55;101848.53;4991919;28;20048;-65
2022/04/26 11:17:50;;;;;;;7.05;4.63;;;;;;;14.42;55.95;101859.47;4990083;28;20561;-64
2022/04/26 11:20:20;;;;;;;6.90;4.63;;;;;;;13.51;56.65;101856.09;4990109;28;20038;-65
2022/04/26 11:22:51;;;;;;;6.57;4.28;;;;;;;14.00;55.82;101866.53;5008542;28;20439;-64
2022/04/26 11:28:10;;;;;;;7.30;5.07;;;;;;;14.60;53.72;101854.75;5010883;28;20048;-64
2022/04/26 11:30:38;;;;;;;11.30;4.70;;;;;;;14.91;52.89;101848.25;5011284;28;20049;-65
2022/04/26 11:33:07;;;;;;;10.18;4.53;;;;;;;14.21;54.79;101859.84;5010897;28;20048;-64
2022/04/26 11:35:34;;;;;;;8.40;4.75;;;;;;;14.83;53.46;101855.97;5011001;28;20080;-64
2022/04/26 11:38:13;;;;;;;11.43;5.53;;;;;;;14.48;56.19;101859.97;4992345;28;20080;-64
2022/04/26 11:40:48;;;;;;;9.15;5.03;;;;;;;13.90;56.39;101866.22;5010644;28;20477;-65
2022/04/26 11:43:15;;;;;;;6.75;4.32;;;;;;;13.68;56.08;101866.66;5014887;28;20045;-65
2022/04/26 11:45:45;;;;;;;5.90;4.35;;;;;;;14.14;55.65;101871.91;5013334;28;20052;-65
2022/04/26 11:48:13;;;;;;;8.68;5.28;;;;;;;14.30;54.21;101871.81;5015793;28;20498;-65
2022/04/26 11:50:39;;;;;;;9.75;5.10;;;;;;;15.03;54.28;101868.97;5016352;28;20083;-65
2022/04/26 11:53:14;;;;;;;7.32;5.55;;;;;;;15.44;54.31;101868.88;5016057;28;20478;-65
2022/04/26 11:55:42;;;;;;;6.88;5.03;;;;;;;15.20;54.19;101868.69;5015296;28;20469;-65
2022/04/26 11:58:16;;;;;;;4.72;4.13;;;;;;;14.54;53.88;101876.63;5012906;28;20419;-65
2022/04/26 12:01:00;;;;;;;7.28;5.13;;;;;;;14.81;52.71;101876.69;5014774;28;20045;-64
2022/04/26 12:03:43;;;;;;;8.75;5.20;;;;;;;14.86;53.86;101877.25;5012422;28;20041;-64
2022/04/26 12:06:11;;;;;;;11.40;5.43;;;;;;;14.50;55.73;101878.63;5014579;28;20149;-64
2022/04/26 12:08:40;;;;;;;8.68;4.50;;;;;;;15.46;51.96;101868.78;5014338;28;20053;-65
2022/04/26 12:11:24;;;;;;;5.30;4.43;;;;;;;15.85;53.25;101864.38;5014429;28;20076;-65
2022/04/26 12:13:59;;;;;;;6.97;4.68;;;;;;;15.35;53.15;101865.97;5013175;28;20057;-65
2022/04/26 12:16:25;;;;;;;6.82;4.65;;;;;;;15.27;52.51;101863.81;5012864;28;20652;-64
2022/04/26 12:19:02;;;;;;;5.05;4.40;;;;;;;14.66;51.48;101876.72;5014862;28;20396;-65
2022/04/26 12:21:28;;;;;;;5.43;4.45;;;;;;;14.86;55.77;101869.19;5014188;28;20071;-65
2022/04/26 12:24:21;;;;;;;7.45;4.47;;;;;;;13.91;54.31;101877.84;5014488;28;20131;-65
2022/04/26 12:27:00;;;;;;;7.20;4.28;;;;;;;13.81;57.76;101871.31;5014733;28;20160;-64
2022/04/26 12:29:39;;;;;;;7.88;4.45;;;;;;;14.09;55.10;101867.78;4997384;28;20594;-64
2022/04/26 12:32:16;;;;;;;7.07;4.03;;;;;;;14.21;54.97;101864.38;5014983;28;20045;-64
2022/04/26 12:34:58;;;;;;;9.18;4.03;;;;;;;14.24;55.15;101866.84;5013612;28;20151;-64
2022/04/26 12:37:26;;;;;;;7.55;4.70;;;;;;;14.18;52.75;101867.22;5013827;28;20037;-65
2022/04/26 12:39:58;;;;;;;7.47;5.00;;;;;;;14.24;54.24;101861.47;5005841;28;20152;-65
2022/04/26 12:42:26;;;;;;;4.72;3.72;;;;;;;14.17;53.04;101857.47;5013739;28;20399;-64
2022/04/26 12:44:56;;;;;;;5.82;4.20;;;;;;;14.34;57.39;101867.13;5012733;28;20044;-65
2022/04/26 12:52:53;;;;;;;5.88;3.72;;;;;;;14.92;53.86;101866.13;5012492;28;20205;-64
2022/04/26 12:55:27;;;;;;;5.93;3.92;;;;;;;14.39;52.46;101878.44;5012773;28;20809;-65
2022/04/26 12:57:54;;;;;;;14.52;4.97;;;;;;;14.38;51.65;101864.16;5010670;28;20096;-64
2022/04/26 13:00:22;;;;;;;8.63;3.63;;;;;;;14.11;49.55;101872.13;5027676;28;20124;-64
2022/04/26 13:02:49;;;;;;;7.50;3.90;;;;;;;14.21;50.51;101862.53;5000998;28;20052;-64
2022/04/26 13:05:16;;;;;;;4.78;3.40;;;;;;;14.38;49.96;101858.78;5012526;28;20427;-64
2022/04/26 13:07:43;;;;;;;4.85;3.85;;;;;;;14.71;50.12;101861.19;4978380;28;20079;-65
2022/04/26 13:10:09;;;;;;;4.05;3.47;;;;;;;14.62;48.03;101859.09;5012905;28;20881;-64
2022/04/26 13:12:35;;;;;;;7.18;3.00;;;;;;;14.56;48.13;101855.91;5012783;28;20053;-64
2022/04/26 13:15:00;;;;;;;4.90;3.05;;;;;;;14.90;47.65;101857.28;5012101;28;20124;-64
2022/04/26 13:17:26;;;;;;;3.97;3.13;;;;;;;14.79;48.28;101858.00;5012282;28;20045;-64
2022/04/26 13:19:52;;;;;;;5.25;3.47;;;;;;;14.63;47.31;101868.00;5012001;28;20037;-65
2022/04/26 13:22:18;;;;;;;4.82;3.22;;;;;;;14.81;47.82;101860.56;5012445;28;20365;-65
2022/04/26 13:24:44;;;;;;;5.13;3.72;;;;;;;14.82;51.63;101862.31;5012842;28;20044;-64
2022/04/26 13:27:11;;;;;;;4.25;3.30;;;;;;;15.05;50.37;101855.41;5015568;28;20042;-65
2022/04/26 13:29:37;;;;;;;5.32;2.90;;;;;;;14.71;48.49;101853.13;5021813;28;20037;-65
2022/04/26 13:35:50;;;;;;;5.32;3.40;;;;;;;14.00;46.47;101861.16;5032333;28;20469;-65
2022/04/26 13:38:16;;;;;;;4.00;2.83;;;;;;;14.37;49.05;101857.06;5010306;28;20076;-65
2022/04/26 13:40:43;;;;;;;5.32;3.10;;;;;;;14.16;45.67;101858.41;5007673;28;20045;-65
2022/04/26 13:43:09;;;;;;;4.68;2.80;;;;;;;14.30;47.66;101850.34;5012299;28;20037;-65
2022/04/26 13:45:35;;;;;;;5.40;3.17;;;;;;;14.36;46.81;101849.97;5012168;28;20041;-65
2022/04/26 13:48:07;;;;;;;5.53;3.20;;;;;;;15.06;48.65;101841.91;4992914;28;20100;-65
2022/04/26 13:50:32;;;;;;;6.00;3.10;;;;;;;14.20;48.39;101852.75;4992458;28;20045;-65
2022/04/26 13:52:58;;;;;;;2.40;2.20;;;;;;;14.55;49.72;101862.25;4989671;28;20041;-65
2022/04/26 13:55:26;;;;;;;5.05;3.17;;;;;;;14.86;49.39;101855.75;5008358;28;20041;-65
2022/04/26 13:57:53;;;;;;;6.22;3.70;;;;;;;14.82;49.29;101862.31;5011724;28;20061;-65
2022/04/26 14:00:20;;;;;;;7.57;3.72;;;;;;;14.83;48.38;101864.91;5010971;28;20045;-65
2022/04/26 14:02:46;;;;;;;7.15;3.47;;;;;;;14.90;48.79;101862.66;5011227;28;20271;-64
2022/04/26 14:05:12;;;;;;;4.47;2.83;;;;;;;15.00;45.55;101859.25;5011876;28;20045;-65
2022/04/26 14:07:38;;;;;;;5.60;3.22;;;;;;;15.19;46.07;101858.91;5015141;28;20049;-65
2022/04/26 14:10:04;;;;;;;6.00;3.33;;;;;;;15.29;45.66;101862.72;4967622;28;20052;-66
2022/04/26 14:12:30;;;;;;;6.28;3.60;;;;;;;15.48;48.20;101870.41;5012115;28;20080;-65
2022/04/26 14:23:11;;;;;;;5.60;3.00;;;;;;;15.06;47.39;101866.09;5011849;28;20047;-64
2022/04/26 14:25:38;;;;;;;10.30;3.80;;;;;;;15.03;48.70;101868.97;5007970;28;20037;-65
2022/04/26 14:28:03;;;;;;;4.40;3.00;;;;;;;15.60;44.13;101859.78;5011175;28;20151;-64
2022/04/26 14:30:29;;;;;;;4.75;3.40;;;;;;;15.56;47.86;101856.44;5011346;28;20049;-64
2022/04/26 14:32:54;;;;;;;5.68;3.55;;;;;;;15.71;47.02;101854.56;5011428;28;20033;-65
2022/04/26 14:35:20;;;;;;;7.03;3.50;;;;;;;15.51;47.70;101872.91;5012457;28;20092;-65
2022/04/26 14:37:46;;;;;;;4.07;3.08;;;;;;;15.48;46.83;101869.56;5021546;28;20037;-65
2022/04/26 14:44:15;;;;;;;7.07;3.25;;;;;;;15.48;44.63;101859.66;5030817;28;20093;-65
2022/04/26 14:46:41;;;;;;;6.70;2.88;;;;;;;15.04;47.70;101868.00;5012704;28;20037;-65
2022/04/26 14:49:07;;;;;;;3.25;2.80;;;;;;;15.12;48.65;101868.38;5012333;28;20389;-67
2022/04/26 14:51:33;;;;;;;5.43;2.88;;;;;;;14.61;46.57;101881.53;5004045;28;20069;-66
2022/04/26 14:54:43;;;;;;;5.25;2.75;;;;;;;15.02;47.93;101868.09;5024269;28;20056;-66
2022/04/26 15:05:32;;;;;;;3.50;2.63;;;;;;;14.74;47.41;101874.41;5015359;28;20548;-67
2022/04/26 15:10:41;;;;;;;3.33;2.47;;;;;;;14.28;50.51;101878.25;5009821;28;20049;-66
2022/04/26 15:18:35;;;;;;;5.97;2.75;;;;;;;14.24;45.85;101878.44;4989554;28;20069;-67
2022/04/26 15:21:02;;;;;;;6.32;2.95;;;;;;;14.84;46.18;101873.81;4995215;28;20192;-68
2022/04/26 15:23:28;;;;;;;3.25;2.90;;;;;;;14.69;49.16;101868.47;5014091;28;20045;-67
2022/04/26 15:25:55;;;;;;;3.50;2.70;;;;;;;14.64;45.65;101877.78;5014635;28;20052;-67
2022/04/26 15:28:22;;;;;;;4.03;2.60;;;;;;;14.45;47.16;101870.84;5015326;28;20576;-67
2022/04/26 15:30:49;;;;;;;3.67;2.55;;;;;;;14.10;46.86;101867.69;5014881;28;20029;-67
2022/04/26 15:33:15;;;;;;;3.25;2.70;;;;;;;14.52;45.68;101868.69;5014361;28;20064;-67
2022/04/26 15:35:42;;;;;;;3.65;2.50;;;;;;;14.70;48.46;101872.88;5015148;28;20041;-68
2022/04/26 15:38:12;;;;;;;3.92;2.75;;;;;;;14.46;48.52;101877.09;5015090;28;20048;-68
2022/04/26 15:40:40;;;;;;;6.68;2.67;;;;;;;14.41;48.32;101865.78;5015156;28;20390;-67
2022/04/26 15:43:05;;;;;;;4.78;2.90;;;;;;;14.17;47.19;101870.88;5016011;28;20831;-66
2022/04/26 15:45:31;;;;;;;4.03;2.47;;;;;;;13.86;47.48;101882.63;5014846;28;20041;-67
2022/04/26 15:47:56;;;;;;;6.93;3.35;;;;;;;14.43;48.35;101882.66;5015907;28;20104;-67
2022/04/26 15:50:22;;;;;;;5.80;3.25;;;;;;;14.45;45.73;101878.91;5018854;28;20038;-69
2022/04/26 15:52:48;;;;;;;8.18;2.75;;;;;;;14.36;47.51;101884.00;5019896;28;20044;-67
2022/04/26 15:55:13;;;;;;;5.10;2.80;;;;;;;14.31;46.65;101884.28;5017204;28;20501;-67
2022/04/26 15:57:39;;;;;;;4.05;3.08;;;;;;;14.32;48.06;101886.00;5017674;28;20080;-67
2022/04/26 16:00:05;;;;;;;4.80;3.15;;;;;;;14.13;46.00;101880.91;5013526;28;20050;-67
2022/04/26 16:02:33;;;;;;;7.25;3.60;;;;;;;14.30;49.67;101887.91;5011622;28;20108;-67
2022/04/26 16:04:59;;;;;;;2.95;2.30;;;;;;;14.10;48.93;101891.81;5013726;28;20041;-67
2022/04/26 16:07:25;;;;;;;5.78;3.20;;;;;;;14.14;48.37;101896.03;5013926;28;20623;-67
2022/04/26 16:20:47;;;;;;;5.50;2.90;;;;;;;14.23;47.18;101892.81;5013842;28;20054;-67
2022/04/26 16:23:12;;;;;;;5.25;3.28;;;;;;;14.22;48.01;101893.75;5030839;28;20124;-67
2022/04/26 16:25:38;;;;;;;4.13;3.25;;;;;;;14.23;48.29;101892.81;5018235;28;20041;-67
2022/04/26 16:28:04;;;;;;;6.50;3.10;;;;;;;14.01;47.10;101900.47;5012565;28;20045;-66
2022/04/26 16:30:31;;;;;;;6.38;3.17;;;;;;;13.90;50.45;101895.72;5013422;28;20036;-67